createdAt,value
2022-10-28T00:01:20.941Z,101839.59
2022-10-28T00:03:53.083Z,101832.84
2022-10-28T00:06:22.758Z,101836.41
2022-10-28T00:08:49.537Z,101841.88
2022-10-28T00:11:17.364Z,101840.16
2022-10-28T00:13:45.551Z,101843.72
2022-10-28T00:16:14.034Z,101842.03
2022-10-28T00:18:41.371Z,101831.53
2022-10-28T00:21:19.901Z,101835.94
2022-10-28T00:23:46.482Z,101828.13
2022-10-28T00:26:16.765Z,101820.34
2022-10-28T00:28:45.633Z,101817.91
2022-10-28T00:31:13.894Z,101825.13
2022-10-28T00:33:40.864Z,101819.94
2022-10-28T00:36:09.570Z,101812.88
2022-10-28T00:38:36.295Z,101817.31
2022-10-28T00:41:02.781Z,101809.41
2022-10-28T00:43:41.516Z,101813.66
2022-10-28T00:46:15.257Z,101807.63
2022-10-28T00:48:45.548Z,101805.09
2022-10-28T00:51:13.201Z,101801.63
2022-10-28T00:53:42.636Z,101807.81
2022-10-28T00:56:11.520Z,101786.88
2022-10-28T00:58:38.765Z,101798.34
2022-10-28T01:01:05.411Z,101790.53
2022-10-28T01:03:32.975Z,101787.06
2022-10-28T01:06:01.122Z,101788.00
2022-10-28T01:08:27.677Z,101780.97
2022-10-28T01:10:57.272Z,101783.47
2022-10-28T01:13:36.965Z,101780.00
2022-10-28T01:16:28.458Z,101776.47
2022-10-28T01:19:07.533Z,101781.91
2022-10-28T01:21:51.385Z,101774.94
2022-10-28T01:24:42.582Z,101772.41
2022-10-28T01:27:27.818Z,101775.13
2022-10-28T01:30:24.126Z,101782.34
2022-10-28T01:33:33.450Z,101784.97
2022-10-28T01:36:34.189Z,101776.34
2022-10-28T01:39:30.833Z,101769.50
2022-10-28T01:42:08.823Z,101772.13
2022-10-28T01:45:01.547Z,101769.59
2022-10-28T01:47:53.803Z,101768.06
2022-10-28T01:50:38.071Z,101761.22
2022-10-28T01:53:10.802Z,101768.41
2022-10-28T01:55:41.535Z,101763.13
2022-10-28T01:58:12.315Z,101753.50
2022-10-28T02:00:39.860Z,101755.34
2022-10-28T02:03:09.746Z,101749.50
2022-10-28T02:05:45.440Z,101748.78
2022-10-28T02:08:17.800Z,101744.53
2022-10-28T02:11:21.606Z,101750.81
2022-10-28T02:14:15.635Z,101744.25
2022-10-28T02:16:50.195Z,101737.66
2022-10-28T02:19:38.294Z,101744.59
2022-10-28T02:22:15.793Z,101743.69
2022-10-28T02:24:54.477Z,101733.16
2022-10-28T02:27:48.545Z,101734.84
2022-10-28T02:30:32.372Z,101735.69
2022-10-28T02:33:03.957Z,101733.25
2022-10-28T02:35:45.056Z,101736.91
2022-10-28T02:38:18.819Z,101734.47
2022-10-28T02:43:20.542Z,101722.53
2022-10-28T02:45:51.741Z,101724.56
2022-10-28T02:48:31.567Z,101726.34
2022-10-28T02:51:13.071Z,101722.06
2022-10-28T02:54:09.189Z,101727.31
2022-10-28T02:56:40.384Z,101727.19
2022-10-28T02:59:12.435Z,101731.44
2022-10-28T03:01:40.727Z,101731.53
2022-10-28T03:04:07.399Z,101730.94
2022-10-28T03:06:34.005Z,101731.41
2022-10-28T03:09:00.428Z,101729.91
2022-10-28T03:11:27.078Z,101727.44
2022-10-28T03:13:53.553Z,101715.44
2022-10-28T03:16:20.204Z,101724.38
2022-10-28T03:18:46.707Z,101721.03
2022-10-28T03:21:13.214Z,101722.81
2022-10-28T03:23:39.724Z,101721.19
2022-10-28T03:26:06.241Z,101724.66
2022-10-28T03:28:32.704Z,101719.69
2022-10-28T03:30:59.214Z,101729.41
2022-10-28T03:33:25.874Z,101731.19
2022-10-28T03:35:52.465Z,101726.97
2022-10-28T03:38:19.133Z,101722.66
2022-10-28T03:40:48.804Z,101714.97
2022-10-28T03:43:15.779Z,101712.41
2022-10-28T03:45:42.415Z,101712.50
2022-10-28T03:48:08.972Z,101702.19
2022-10-28T03:50:35.426Z,101702.94
2022-10-28T03:53:02.073Z,101700.38
2022-10-28T03:55:28.575Z,101690.91
2022-10-28T03:57:55.442Z,101692.63
2022-10-28T04:00:22.338Z,101688.88
2022-10-28T04:02:53.397Z,101680.72
2022-10-28T04:05:21.034Z,101686.91
2022-10-28T04:07:48.005Z,101679.88
2022-10-28T04:10:15.037Z,101688.88
2022-10-28T04:12:41.497Z,101694.31
2022-10-28T04:15:08.242Z,101690.00
2022-10-28T04:17:34.973Z,101690.84
2022-10-28T04:20:01.615Z,101691.00
2022-10-28T04:22:28.177Z,101699.81
2022-10-28T04:24:54.781Z,101698.22
2022-10-28T04:27:21.693Z,101701.56
2022-10-28T04:29:48.242Z,101700.84
2022-10-28T04:32:14.656Z,101700.06
2022-10-28T04:34:41.652Z,101702.78
2022-10-28T04:37:08.159Z,101704.56
2022-10-28T04:39:34.830Z,101694.81
2022-10-28T04:42:01.332Z,101700.06
2022-10-28T04:44:27.737Z,101703.63
2022-10-28T04:46:56.883Z,101694.81
2022-10-28T04:49:23.386Z,101698.88
2022-10-28T04:51:49.887Z,101697.69
2022-10-28T04:54:16.439Z,101700.22
2022-10-28T04:56:43.081Z,101692.16
2022-10-28T04:59:09.560Z,101688.53
2022-10-28T05:01:36.916Z,101687.69
2022-10-28T05:04:03.870Z,101683.28
2022-10-28T05:06:30.496Z,101688.53
2022-10-28T05:08:56.904Z,101689.53
2022-10-28T05:11:24.367Z,101688.69
2022-10-28T05:13:53.203Z,101697.50
2022-10-28T05:16:20.107Z,101691.31
2022-10-28T05:18:46.837Z,101683.47
2022-10-28T05:21:13.363Z,101677.19
2022-10-28T05:23:39.816Z,101670.06
2022-10-28T05:26:06.395Z,101664.63
2022-10-28T05:28:32.910Z,101665.66
2022-10-28T05:30:59.324Z,101673.44
2022-10-28T05:33:25.826Z,101670.53
2022-10-28T05:35:52.550Z,101669.69
2022-10-28T05:38:19.133Z,101671.50
2022-10-28T05:40:45.557Z,101667.19
2022-10-28T05:43:12.700Z,101665.47
2022-10-28T05:45:39.312Z,101661.00
2022-10-28T05:48:06.244Z,101663.63
2022-10-28T05:50:32.844Z,101666.13
2022-10-28T05:52:59.430Z,101665.13
2022-10-28T05:55:28.386Z,101665.22
2022-10-28T05:57:55.990Z,101662.31
2022-10-28T06:00:25.376Z,101666.63
2022-10-28T06:02:52.454Z,101671.88
2022-10-28T06:05:19.386Z,101677.13
2022-10-28T06:07:45.947Z,101671.88
2022-10-28T06:10:12.521Z,101674.69
2022-10-28T06:12:37.772Z,101668.69
2022-10-28T06:15:04.898Z,101666.25
2022-10-28T06:17:31.451Z,101675.22
2022-10-28T06:19:57.988Z,101682.22
2022-10-28T06:22:24.428Z,101674.56
2022-10-28T06:24:50.864Z,101683.34
2022-10-28T06:27:17.394Z,101679.22
2022-10-28T06:29:45.657Z,101690.56
2022-10-28T06:32:12.225Z,101685.91
2022-10-28T06:34:38.797Z,101693.78
2022-10-28T06:37:09.298Z,101695.47
2022-10-28T06:39:38.315Z,101684.03
2022-10-28T06:42:04.909Z,101689.03
2022-10-28T06:44:31.555Z,101688.91
2022-10-28T06:47:00.140Z,101688.75
2022-10-28T06:49:27.964Z,101683.16
2022-10-28T06:51:54.434Z,101698.56
2022-10-28T06:54:21.127Z,101693.97
2022-10-28T06:56:47.762Z,101698.94
2022-10-28T06:59:14.364Z,101698.75
2022-10-28T07:01:40.970Z,101701.09
2022-10-28T07:04:11.737Z,101692.31
2022-10-28T07:06:39.065Z,101689.56
2022-10-28T07:09:06.164Z,101694.66
2022-10-28T07:11:33.167Z,101692.63
2022-10-28T07:14:01.646Z,101693.94
2022-10-28T07:16:28.114Z,101689.16
2022-10-28T07:18:56.758Z,101693.41
2022-10-28T07:21:28.351Z,101687.84
2022-10-28T07:23:56.503Z,101691.69
2022-10-28T07:26:23.909Z,101692.16
2022-10-28T07:28:50.881Z,101694.44
2022-10-28T07:31:17.643Z,101700.94
2022-10-28T07:33:44.713Z,101698.13
2022-10-28T07:36:11.657Z,101700.28
2022-10-28T07:38:38.188Z,101699.06
2022-10-28T07:41:06.708Z,101699.22
2022-10-28T07:43:37.047Z,101699.78
2022-10-28T07:46:03.874Z,101699.38
2022-10-28T07:48:30.511Z,101700.59
2022-10-28T07:51:00.394Z,101695.59
2022-10-28T07:53:28.744Z,101708.00
2022-10-28T07:56:00.995Z,101709.09
2022-10-28T07:58:28.135Z,101714.38
2022-10-28T08:00:54.977Z,101711.06
2022-10-28T08:03:21.948Z,101715.81
2022-10-28T08:05:48.463Z,101723.34
2022-10-28T08:08:15.013Z,101720.19
2022-10-28T08:10:41.762Z,101714.72
2022-10-28T08:13:08.341Z,101711.78
2022-10-28T08:15:34.907Z,101710.72
2022-10-28T08:18:01.383Z,101710.53
2022-10-28T08:20:27.956Z,101711.81
2022-10-28T08:22:54.859Z,101712.03
2022-10-28T08:25:22.093Z,101708.78
2022-10-28T08:27:48.494Z,101714.06
2022-10-28T08:30:15.155Z,101712.03
2022-10-28T08:32:41.575Z,101725.75
2022-10-28T08:35:08.666Z,101713.25
2022-10-28T08:37:35.499Z,101717.91
2022-10-28T08:40:02.728Z,101719.78
2022-10-28T08:42:44.338Z,101718.28
2022-10-28T08:46:01.340Z,101716.69
2022-10-28T08:48:32.728Z,101718.56
2022-10-28T08:51:22.706Z,101728.41
2022-10-28T08:53:56.949Z,101725.78
2022-10-28T08:56:35.491Z,101715.72
2022-10-28T08:59:06.272Z,101705.66
2022-10-28T09:01:42.021Z,101699.44
2022-10-28T09:04:26.290Z,101704.50
2022-10-28T09:06:53.760Z,101705.09
2022-10-28T09:09:22.495Z,101709.72
2022-10-28T09:12:02.152Z,101709.63
2022-10-28T09:14:41.911Z,101712.34
2022-10-28T09:17:17.598Z,101701.81
2022-10-28T09:19:52.678Z,101707.59
2022-10-28T09:22:38.298Z,101701.84
2022-10-28T09:25:36.545Z,101705.19
2022-10-28T09:28:21.697Z,101701.16
2022-10-28T09:31:04.762Z,101704.31
2022-10-28T09:34:00.358Z,101695.41
2022-10-28T09:36:37.769Z,101694.72
2022-10-28T09:39:07.450Z,101704.34
2022-10-28T09:41:38.439Z,101707.84
2022-10-28T09:44:18.485Z,101706.28
2022-10-28T09:46:48.609Z,101700.16
2022-10-28T09:49:22.223Z,101710.97
2022-10-28T09:51:54.258Z,101719.38
2022-10-28T09:54:34.632Z,101706.28
2022-10-28T09:57:02.624Z,101703.25
2022-10-28T09:59:29.139Z,101702.44
2022-10-28T10:01:56.181Z,101707.13
2022-10-28T10:04:25.218Z,101708.94
2022-10-28T10:07:01.630Z,101706.66
2022-10-28T10:09:31.287Z,101717.09
2022-10-28T10:12:05.329Z,101705.69
2022-10-28T10:14:44.419Z,101703.75
2022-10-28T10:17:30.630Z,101709.66
2022-10-28T10:20:08.446Z,101712.06
2022-10-28T10:22:38.321Z,101700.97
2022-10-28T10:25:24.088Z,101688.31
2022-10-28T10:28:14.998Z,101688.06
2022-10-28T10:30:53.992Z,101684.25
2022-10-28T10:33:34.950Z,101683.91
2022-10-28T10:36:10.484Z,101677.13
2022-10-28T10:38:39.074Z,101677.66
2022-10-28T10:41:05.721Z,101690.03
2022-10-28T10:43:33.397Z,101677.94
2022-10-28T10:46:17.845Z,101672.63
2022-10-28T10:48:46.425Z,101676.69
2022-10-28T10:51:23.570Z,101667.56
2022-10-28T10:53:54.607Z,101663.69
2022-10-28T10:56:33.198Z,101669.47
2022-10-28T10:59:02.790Z,101676.94
2022-10-28T11:01:35.899Z,101675.72
2022-10-28T11:04:17.235Z,101681.00
2022-10-28T11:06:49.260Z,101680.66
2022-10-28T11:09:25.304Z,101679.75
2022-10-28T11:11:55.508Z,101669.00
2022-10-28T11:14:30.448Z,101677.78
2022-10-28T11:16:59.680Z,101675.84
2022-10-28T11:19:33.661Z,101673.94
2022-10-28T11:22:03.144Z,101672.69
2022-10-28T11:24:47.254Z,101665.09
2022-10-28T11:27:32.615Z,101673.88
2022-10-28T11:30:00.545Z,101674.34
2022-10-28T11:32:33.160Z,101674.19
2022-10-28T11:35:25.503Z,101672.13
2022-10-28T11:38:06.427Z,101668.25
2022-10-28T11:41:17.659Z,101678.22
2022-10-28T11:43:54.582Z,101672.50
2022-10-28T11:47:13.100Z,101673.91
2022-10-28T11:49:59.312Z,101694.34
2022-10-28T11:52:45.271Z,101690.59
2022-10-28T11:55:38.178Z,101680.41
2022-10-28T11:58:19.172Z,101670.25
2022-10-28T12:01:08.893Z,101675.66
2022-10-28T12:03:42.821Z,101692.16
2022-10-28T12:06:16.789Z,101691.63
2022-10-28T12:12:09.901Z,101689.84
2022-10-28T12:15:26.927Z,101687.50
2022-10-28T12:18:06.295Z,101695.34
2022-10-28T12:20:41.266Z,101684.59
2022-10-28T12:23:13.804Z,101690.72
2022-10-28T12:25:45.074Z,101679.28
2022-10-28T12:28:21.480Z,101676.63
2022-10-28T12:30:50.544Z,101694.94
2022-10-28T12:33:42.108Z,101693.13
2022-10-28T12:36:10.076Z,101705.31
2022-10-28T12:38:48.486Z,101698.44
2022-10-28T12:41:19.042Z,101697.84
2022-10-28T12:44:04.437Z,101694.78
2022-10-28T12:49:24.054Z,101697.53
2022-10-28T12:51:52.331Z,101697.78
2022-10-28T12:54:25.409Z,101695.41
2022-10-28T12:57:08.230Z,101698.91
2022-10-28T12:59:45.697Z,101709.53
2022-10-28T13:02:25.361Z,101720.84
2022-10-28T13:04:52.458Z,101707.44
2022-10-28T13:07:54.823Z,101732.28
2022-10-28T13:10:49.306Z,101745.00
2022-10-28T13:13:35.681Z,101748.63
2022-10-28T13:16:43.898Z,101744.41
2022-10-28T13:19:24.809Z,101743.84
2022-10-28T13:22:18.749Z,101741.59
2022-10-28T13:24:45.366Z,101751.38
2022-10-28T13:27:14.129Z,101744.63
2022-10-28T13:29:43.733Z,101743.94
2022-10-28T13:32:43.189Z,101744.19
2022-10-28T13:35:30.509Z,101753.81
2022-10-28T13:37:58.790Z,101745.03
2022-10-28T13:40:31.511Z,101751.44
2022-10-28T13:43:00.556Z,101755.78
2022-10-28T13:45:48.746Z,101759.28
2022-10-28T13:48:42.850Z,101752.16
2022-10-28T13:51:09.249Z,101746.00
2022-10-28T13:53:44.991Z,101754.91
2022-10-28T13:56:31.964Z,101752.16
2022-10-28T13:59:02.611Z,101758.31
2022-10-28T14:01:41.354Z,101754.91
2022-10-28T14:04:36.463Z,101767.50
2022-10-28T14:07:12.665Z,101771.13
2022-10-28T14:09:41.610Z,101787.06
2022-10-28T14:12:33.028Z,101783.41
2022-10-28T14:15:21.005Z,101783.53
2022-10-28T14:18:00.911Z,101788.25
2022-10-28T14:20:40.915Z,101795.28
2022-10-28T14:23:22.519Z,101795.13
2022-10-28T14:25:53.764Z,101796.94
2022-10-28T14:28:32.213Z,101791.75
2022-10-28T14:31:41.669Z,101785.59
2022-10-28T14:34:14.348Z,101781.28
2022-10-28T14:36:49.823Z,101776.47
2022-10-28T14:39:29.911Z,101783.03
2022-10-28T14:42:03.314Z,101782.31
2022-10-28T14:44:51.713Z,101783.53
2022-10-28T14:48:03.094Z,101787.66
2022-10-28T14:50:47.841Z,101803.72
2022-10-28T14:53:20.615Z,101807.47
2022-10-28T14:55:52.167Z,101820.84
2022-10-28T14:58:30.589Z,101824.81
2022-10-28T15:01:01.095Z,101830.38
2022-10-28T15:03:28.352Z,101819.03
2022-10-28T15:05:54.932Z,101819.28
2022-10-28T15:08:21.564Z,101815.94
2022-10-28T15:10:49.570Z,101820.66
2022-10-28T15:13:18.979Z,101821.97
2022-10-28T15:15:53.766Z,101822.22
2022-10-28T15:18:23.718Z,101832.09
2022-10-28T15:21:06.776Z,101819.81
2022-10-28T15:26:16.181Z,101837.91
2022-10-28T15:28:43.320Z,101840.81
2022-10-28T15:31:09.832Z,101849.72
2022-10-28T15:33:41.892Z,101850.09
2022-10-28T15:36:23.384Z,101853.84
2022-10-28T15:39:16.185Z,101864.44
2022-10-28T15:41:45.415Z,101862.16
2022-10-28T15:44:38.677Z,101855.44
2022-10-28T15:47:18.654Z,101859.00
2022-10-28T15:49:59.461Z,101861.91
2022-10-28T15:52:33.316Z,101863.03
2022-10-28T15:55:02.210Z,101853.59
2022-10-28T15:57:31.686Z,101868.78
2022-10-28T16:00:27.946Z,101873.59
2022-10-28T16:02:56.605Z,101870.25
2022-10-28T16:05:32.862Z,101873.13
2022-10-28T16:08:07.215Z,101867.94
2022-10-28T16:10:43.232Z,101881.56
2022-10-28T16:13:20.376Z,101875.66
2022-10-28T16:15:56.364Z,101875.75
2022-10-28T16:18:25.598Z,101883.94
2022-10-28T16:20:54.613Z,101893.91
2022-10-28T16:23:24.094Z,101894.25
2022-10-28T16:25:50.728Z,101907.97
2022-10-28T16:28:24.103Z,101915.06
2022-10-28T16:30:53.733Z,101929.50
2022-10-28T16:33:27.113Z,101925.16
2022-10-28T16:35:53.884Z,101930.22
2022-10-28T16:38:20.707Z,101934.44
2022-10-28T16:40:51.769Z,101942.50
2022-10-28T16:43:21.238Z,101939.03
2022-10-28T16:45:49.513Z,101939.97
2022-10-28T16:48:17.888Z,101938.28
2022-10-28T16:50:49.363Z,101941.91
2022-10-28T16:53:16.318Z,101945.25
2022-10-28T16:55:42.918Z,101946.22
2022-10-28T16:58:09.723Z,101953.19
2022-10-28T17:00:36.533Z,101959.22
2022-10-28T17:03:03.056Z,101951.16
2022-10-28T17:05:29.714Z,101959.22
2022-10-28T17:07:56.553Z,101952.25
2022-10-28T17:10:24.037Z,101950.56
2022-10-28T17:12:50.908Z,101959.56
2022-10-28T17:15:18.511Z,101949.31
2022-10-28T17:17:50.573Z,101954.38
2022-10-28T17:20:17.779Z,101953.00
2022-10-28T17:22:44.316Z,101962.16
2022-10-28T17:25:11.018Z,101966.00
2022-10-28T17:27:37.857Z,101970.63
2022-10-28T17:30:05.308Z,101976.19
2022-10-28T17:32:32.022Z,101982.53
2022-10-28T17:34:58.564Z,101989.00
2022-10-28T17:37:25.182Z,101985.97
2022-10-28T17:39:52.579Z,101994.13
2022-10-28T17:42:19.361Z,102004.19
2022-10-28T17:44:45.813Z,101999.34
2022-10-28T17:47:12.849Z,102008.44
2022-10-28T17:49:40.209Z,102007.00
2022-10-28T17:52:06.699Z,102015.13
2022-10-28T17:54:33.987Z,102016.94
2022-10-28T17:57:00.429Z,102015.34
2022-10-28T17:59:27.029Z,102017.38
2022-10-28T18:01:54.757Z,102010.63
2022-10-28T18:04:26.188Z,102020.53
2022-10-28T18:06:55.062Z,102027.63
2022-10-28T18:09:24.384Z,102029.22
2022-10-28T18:11:51.186Z,102027.63
2022-10-28T18:14:20.140Z,102016.31
2022-10-28T18:16:52.533Z,102030.50
2022-10-28T18:19:19.072Z,102028.78
2022-10-28T18:21:47.805Z,102035.97
2022-10-28T18:24:14.358Z,102037.25
2022-10-28T18:26:41.182Z,102040.00
2022-10-28T18:29:10.003Z,102044.66
2022-10-28T18:31:37.867Z,102053.53
2022-10-28T18:34:05.125Z,102067.06
2022-10-28T18:36:35.642Z,102075.97
2022-10-28T18:39:04.886Z,102079.34
2022-10-28T18:41:32.573Z,102082.09
2022-10-28T18:44:01.346Z,102086.41
2022-10-28T18:46:29.351Z,102076.81
2022-10-28T18:48:57.423Z,102064.09
2022-10-28T18:51:24.598Z,102063.69
2022-10-28T18:53:51.904Z,102055.31
2022-10-28T18:56:24.020Z,102053.97
2022-10-28T18:58:51.972Z,102059.66
2022-10-28T19:01:27.184Z,102062.91
2022-10-28T19:03:55.999Z,102069.75
2022-10-28T19:06:24.727Z,102079.03
2022-10-28T19:08:56.212Z,102085.56
2022-10-28T19:11:30.399Z,102083.03
2022-10-28T19:14:02.747Z,102085.75
2022-10-28T19:16:31.471Z,102089.38
2022-10-28T19:18:59.358Z,102093.25
2022-10-28T19:21:27.344Z,102091.03
2022-10-28T19:23:54.608Z,102093.19
2022-10-28T19:26:22.946Z,102092.63
2022-10-28T19:28:50.392Z,102085.94
2022-10-28T19:31:19.297Z,102095.13
2022-10-28T19:33:46.246Z,102096.16
2022-10-28T19:36:12.870Z,102099.94
2022-10-28T19:38:39.355Z,102101.81
2022-10-28T19:41:09.860Z,102104.66
2022-10-28T19:43:37.112Z,102106.44
2022-10-28T19:46:06.207Z,102103.06
2022-10-28T19:48:34.078Z,102108.22
2022-10-28T19:51:00.855Z,102110.88
2022-10-28T19:53:27.621Z,102115.38
2022-10-28T19:55:59.772Z,102115.38
2022-10-28T19:58:27.596Z,102126.88
2022-10-28T20:01:03.529Z,102130.56
2022-10-28T20:03:34.342Z,102132.53
2022-10-28T20:06:04.498Z,102125.88
2022-10-28T20:08:33.515Z,102130.41
2022-10-28T20:11:02.246Z,102141.13
2022-10-28T20:13:28.827Z,102143.88
2022-10-28T20:15:55.608Z,102147.63
2022-10-28T20:18:23.095Z,102150.66
2022-10-28T20:20:49.836Z,102154.59
2022-10-28T20:23:16.313Z,102154.69
2022-10-28T20:25:51.932Z,102161.66
2022-10-28T20:28:18.690Z,102159.97
2022-10-28T20:30:55.433Z,102152.53
2022-10-28T20:33:22.068Z,102156.50
2022-10-28T20:35:48.536Z,102160.22
2022-10-28T20:38:15.114Z,102158.53
2022-10-28T20:40:41.709Z,102175.38
2022-10-28T20:43:08.163Z,102175.66
2022-10-28T20:45:34.635Z,102174.16
2022-10-28T20:48:01.126Z,102163.13
2022-10-28T20:50:29.288Z,102164.31
2022-10-28T20:52:56.018Z,102172.31
2022-10-28T20:55:22.765Z,102177.66
2022-10-28T20:57:49.357Z,102178.84
2022-10-28T21:00:17.237Z,102186.06
2022-10-28T21:02:45.245Z,102181.94
2022-10-28T21:05:11.864Z,102184.00
2022-10-28T21:07:38.521Z,102182.72
2022-10-28T21:10:05.316Z,102181.28
2022-10-28T21:12:31.864Z,102179.03
2022-10-28T21:14:58.296Z,102181.22
2022-10-28T21:17:24.813Z,102189.47
2022-10-28T21:19:51.418Z,102189.81
2022-10-28T21:22:19.167Z,102184.03
2022-10-28T21:24:45.729Z,102181.66
2022-10-28T21:27:12.186Z,102177.34
2022-10-28T21:29:38.869Z,102174.72
2022-10-28T21:32:05.586Z,102186.16
2022-10-28T21:34:32.101Z,102186.25
2022-10-28T21:36:58.738Z,102176.06
2022-10-28T21:39:25.306Z,102188.72
2022-10-28T21:41:51.811Z,102182.03
2022-10-28T21:44:18.354Z,102189.97
2022-10-28T21:46:47.811Z,102184.88
2022-10-28T21:49:14.577Z,102183.53
2022-10-28T21:51:42.181Z,102178.75
2022-10-28T21:54:08.643Z,102185.50
2022-10-28T21:56:35.022Z,102182.34
2022-10-28T21:59:01.413Z,102192.00
2022-10-28T22:01:27.833Z,102180.56
2022-10-28T22:03:55.433Z,102187.81
2022-10-28T22:06:23.418Z,102188.84
2022-10-28T22:08:53.113Z,102189.84
2022-10-28T22:11:22.123Z,102191.53
2022-10-28T22:13:56.933Z,102189.00
2022-10-28T22:16:23.980Z,102200.38
2022-10-28T22:18:50.751Z,102196.97
2022-10-28T22:21:19.639Z,102208.50
2022-10-28T22:23:47.049Z,102211.13
2022-10-28T22:26:22.616Z,102206.78
2022-10-28T22:28:49.671Z,102213.75
2022-10-28T22:31:18.804Z,102215.47
2022-10-28T22:36:18.899Z,102217.53
2022-10-28T22:38:45.831Z,102214.22
2022-10-28T22:41:18.368Z,102213.59
2022-10-28T22:43:47.845Z,102212.06
2022-10-28T22:46:18.223Z,102226.28
2022-10-28T22:48:46.643Z,102223.81
2022-10-28T22:51:13.632Z,102230.75
2022-10-28T22:53:41.018Z,102222.13
2022-10-28T22:56:10.802Z,102222.13
2022-10-28T22:58:37.237Z,102226.50
2022-10-28T23:01:18.078Z,102227.53
2022-10-28T23:03:47.120Z,102228.28
2022-10-28T23:06:15.882Z,102228.44
2022-10-28T23:08:44.806Z,102222.44
2022-10-28T23:11:12.438Z,102216.41
2022-10-28T23:13:39.072Z,102221.66
2022-10-28T23:16:08.899Z,102224.28
2022-10-28T23:18:35.505Z,102220.09
2022-10-28T23:21:18.443Z,102228.53
2022-10-28T23:23:49.824Z,102213.13
2022-10-28T23:26:19.815Z,102211.59
2022-10-28T23:28:51.087Z,102206.63
2022-10-28T23:31:22.012Z,102204.00
2022-10-28T23:33:49.621Z,102205.72
2022-10-28T23:36:16.395Z,102210.97
2022-10-28T23:38:43.082Z,102217.13
2022-10-28T23:41:14.487Z,102211.13
2022-10-28T23:43:41.767Z,102227.03
2022-10-28T23:46:08.807Z,102220.13
2022-10-28T23:48:35.713Z,102215.88
2022-10-28T23:51:02.239Z,102226.22
2022-10-28T23:53:30.590Z,102222.84
2022-10-28T23:55:57.636Z,102221.13
2022-10-28T23:58:24.418Z,102233.34
